createdAt,value
2017-11-07T00:02:06.359Z,22.02
2017-11-07T00:04:32.602Z,21.42
2017-11-07T00:06:58.830Z,20.10
2017-11-07T00:09:25.128Z,19.70
2017-11-07T00:11:52.161Z,20.77
2017-11-07T00:14:18.474Z,23.45
2017-11-07T00:16:44.748Z,23.38
2017-11-07T00:19:11.011Z,26.60
2017-11-07T00:21:37.274Z,21.33
2017-11-07T00:24:03.531Z,25.98
2017-11-07T00:26:29.814Z,30.70
2017-11-07T00:28:56.081Z,28.62
2017-11-07T00:31:22.351Z,27.15
2017-11-07T00:33:48.637Z,27.73
2017-11-07T00:36:14.885Z,31.23
2017-11-07T00:38:41.138Z,22.17
2017-11-07T00:41:07.420Z,30.58
2017-11-07T00:43:34.423Z,23.98
2017-11-07T00:46:00.672Z,26.73
2017-11-07T00:48:26.922Z,25.77
2017-11-07T00:50:53.179Z,31.60
2017-11-07T00:53:19.439Z,24.10
2017-11-07T00:55:45.703Z,29.15
2017-11-07T00:58:11.956Z,30.67
2017-11-07T01:00:38.263Z,31.58
2017-11-07T01:03:04.553Z,27.15
2017-11-07T01:05:30.845Z,33.88
2017-11-07T01:07:57.140Z,29.55
2017-11-07T01:10:23.412Z,27.00
2017-11-07T01:12:49.676Z,28.23
2017-11-07T01:15:15.930Z,30.52
2017-11-07T01:17:42.173Z,27.80
2017-11-07T01:20:08.438Z,31.55
2017-11-07T01:22:34.683Z,31.37
2017-11-07T01:25:00.902Z,31.52
2017-11-07T01:27:27.187Z,31.98
2017-11-07T01:29:53.523Z,33.22
2017-11-07T01:32:20.478Z,31.62
2017-11-07T01:34:46.754Z,34.53
2017-11-07T01:37:14.029Z,39.03
2017-11-07T01:39:40.362Z,34.45
2017-11-07T01:42:06.634Z,33.78
2017-11-07T01:44:32.892Z,26.45
2017-11-07T01:46:59.901Z,24.83
2017-11-07T01:49:26.172Z,19.05
2017-11-07T01:51:52.422Z,26.62
2017-11-07T01:54:18.691Z,24.50
2017-11-07T01:56:44.974Z,27.23
2017-11-07T01:59:11.259Z,24.33
2017-11-07T02:01:37.573Z,26.62
2017-11-07T02:04:03.832Z,23.05
2017-11-07T02:06:30.040Z,27.87
2017-11-07T02:08:56.323Z,26.95
2017-11-07T02:11:22.904Z,26.52
2017-11-07T02:13:49.954Z,27.25
2017-11-07T02:18:50.029Z,26.17
2017-11-07T02:21:16.349Z,35.20
2017-11-07T02:23:42.688Z,24.92
2017-11-07T02:26:08.972Z,24.95
2017-11-07T02:28:36.022Z,28.20
2017-11-07T02:31:03.062Z,23.12
2017-11-07T02:33:29.452Z,26.90
2017-11-07T02:35:55.730Z,24.65
2017-11-07T02:38:22.789Z,22.42
2017-11-07T02:40:49.124Z,25.27
2017-11-07T02:43:15.414Z,27.45
2017-11-07T02:45:42.438Z,25.95
2017-11-07T02:48:08.704Z,27.23
2017-11-07T02:50:34.976Z,26.48
2017-11-07T02:53:01.275Z,26.05
2017-11-07T02:55:27.545Z,32.20
2017-11-07T02:57:53.818Z,28.23
2017-11-07T03:00:20.099Z,34.67
2017-11-07T03:02:46.343Z,31.37
2017-11-07T03:05:12.609Z,30.30
2017-11-07T03:07:38.854Z,37.75
2017-11-07T03:10:05.163Z,33.55
2017-11-07T03:12:31.422Z,30.30
2017-11-07T03:14:58.010Z,43.33
2017-11-07T03:17:24.983Z,37.67
2017-11-07T03:19:51.253Z,39.00
2017-11-07T03:22:17.515Z,39.53
2017-11-07T03:24:44.512Z,50.33
2017-11-07T03:27:10.803Z,39.85
2017-11-07T03:29:37.274Z,45.30
2017-11-07T03:32:03.540Z,41.05
2017-11-07T03:34:30.543Z,51.83
2017-11-07T03:36:56.780Z,42.17
2017-11-07T03:39:23.058Z,39.88
2017-11-07T03:41:49.246Z,40.78
2017-11-07T03:44:15.522Z,44.05
2017-11-07T03:46:41.793Z,55.70
2017-11-07T03:49:08.054Z,46.42
2017-11-07T03:51:35.050Z,49.03
2017-11-07T03:54:01.316Z,55.38
2017-11-07T03:56:28.351Z,54.53
2017-11-07T03:58:54.588Z,48.20
2017-11-07T04:01:21.583Z,45.72
2017-11-07T04:03:47.825Z,51.03
2017-11-07T04:06:14.092Z,54.58
2017-11-07T04:08:41.100Z,49.25
2017-11-07T04:11:07.323Z,48.15
2017-11-07T04:13:33.569Z,60.38
2017-11-07T04:15:59.818Z,50.22
2017-11-07T04:18:26.838Z,41.88
2017-11-07T04:20:53.131Z,40.58
2017-11-07T04:23:19.439Z,41.28
2017-11-07T04:25:45.684Z,40.92
2017-11-07T04:28:11.952Z,40.45
2017-11-07T04:30:38.226Z,35.00
2017-11-07T04:33:04.541Z,37.72
2017-11-07T04:35:30.797Z,37.83
2017-11-07T04:37:57.037Z,39.83
2017-11-07T04:40:23.281Z,35.70
2017-11-07T04:42:49.583Z,32.17
2017-11-07T04:45:15.837Z,33.25
2017-11-07T04:47:42.064Z,38.80
2017-11-07T04:50:08.326Z,27.35
2017-11-07T04:52:35.299Z,32.78
2017-11-07T04:55:01.572Z,32.47
2017-11-07T04:57:27.829Z,35.08
2017-11-07T04:59:54.115Z,32.47
2017-11-07T05:02:21.361Z,31.77
2017-11-07T05:04:47.611Z,29.37
2017-11-07T05:07:14.609Z,30.95
2017-11-07T05:09:40.854Z,33.53
2017-11-07T05:12:07.083Z,28.52
2017-11-07T05:14:33.303Z,27.15
2017-11-07T05:16:59.729Z,27.70
2017-11-07T05:19:25.961Z,27.95
2017-11-07T05:21:52.216Z,29.92
2017-11-07T05:24:18.474Z,22.58
2017-11-07T05:26:44.759Z,28.83
2017-11-07T05:29:11.029Z,22.33
2017-11-07T05:31:37.275Z,27.58
2017-11-07T05:34:03.545Z,21.87
2017-11-07T05:36:29.794Z,30.90
2017-11-07T05:38:56.761Z,29.83
2017-11-07T05:41:23.015Z,35.47
2017-11-07T05:43:50.016Z,28.05
2017-11-07T05:46:17.109Z,31.55
2017-11-07T05:48:43.407Z,26.92
2017-11-07T05:51:09.700Z,31.05
2017-11-07T05:53:35.978Z,36.83
2017-11-07T05:56:02.251Z,30.55
2017-11-07T05:58:28.521Z,33.60
2017-11-07T06:00:54.770Z,30.33
2017-11-07T06:03:23.768Z,39.72
2017-11-07T06:05:50.446Z,41.15
2017-11-07T06:08:17.690Z,31.10
2017-11-07T06:10:43.928Z,38.03
2017-11-07T06:13:10.936Z,41.53
2017-11-07T06:15:37.202Z,35.38
2017-11-07T06:18:04.173Z,43.13
2017-11-07T06:20:30.439Z,45.72
2017-11-07T06:22:56.660Z,41.30
2017-11-07T06:25:22.900Z,38.70
2017-11-07T06:27:49.215Z,40.17
2017-11-07T06:30:16.261Z,54.58
2017-11-07T06:32:42.561Z,44.22
2017-11-07T06:35:08.795Z,38.83
2017-11-07T06:37:35.063Z,48.78
2017-11-07T06:40:01.370Z,46.30
2017-11-07T06:42:27.639Z,41.10
2017-11-07T06:44:54.654Z,38.45
2017-11-07T06:47:20.895Z,42.55
2017-11-07T06:49:47.151Z,40.60
2017-11-07T06:52:13.373Z,45.63
2017-11-07T06:54:40.345Z,41.08
2017-11-07T06:57:06.635Z,37.50
2017-11-07T06:59:33.623Z,42.58
2017-11-07T07:01:59.920Z,37.88
2017-11-07T07:04:26.910Z,41.30
2017-11-07T07:06:53.145Z,40.63
2017-11-07T07:09:19.407Z,38.55
2017-11-07T07:11:46.389Z,34.85
2017-11-07T07:14:12.636Z,35.22
2017-11-07T07:16:38.867Z,38.30
2017-11-07T07:19:05.120Z,34.53
2017-11-07T07:21:31.367Z,37.00
2017-11-07T07:23:58.360Z,38.35
2017-11-07T07:26:24.601Z,35.92
2017-11-07T07:28:50.869Z,34.10
2017-11-07T07:31:17.179Z,38.20
2017-11-07T07:33:44.334Z,31.30
2017-11-07T07:36:10.606Z,30.58
2017-11-07T07:38:36.866Z,38.25
2017-11-07T07:41:03.110Z,37.38
2017-11-07T07:43:30.127Z,44.05
2017-11-07T07:45:56.387Z,37.17
2017-11-07T07:48:23.641Z,35.60
2017-11-07T07:50:50.614Z,37.58
2017-11-07T07:53:16.851Z,37.58
2017-11-07T07:55:43.100Z,35.72
2017-11-07T07:58:09.330Z,40.83
2017-11-07T08:00:35.581Z,36.45
2017-11-07T08:03:02.584Z,36.78
2017-11-07T08:05:29.166Z,34.25
2017-11-07T08:07:56.214Z,38.03
2017-11-07T08:10:23.200Z,41.50
2017-11-07T08:12:49.545Z,37.90
2017-11-07T08:15:15.851Z,39.83
2017-11-07T08:17:42.155Z,42.35
2017-11-07T08:20:09.180Z,37.40
2017-11-07T08:22:36.178Z,43.75
2017-11-07T08:25:02.434Z,44.85
2017-11-07T08:27:28.689Z,38.28
2017-11-07T08:29:55.721Z,49.08
2017-11-07T08:32:21.947Z,41.67
2017-11-07T08:34:48.955Z,48.65
2017-11-07T08:37:15.193Z,47.38
2017-11-07T08:39:41.766Z,44.90
2017-11-07T08:42:08.877Z,38.95
2017-11-07T08:44:35.142Z,41.63
2017-11-07T08:47:02.157Z,42.00
2017-11-07T08:49:28.447Z,44.15
2017-11-07T08:51:54.857Z,46.28
2017-11-07T08:54:21.165Z,46.97
2017-11-07T08:56:48.205Z,45.05
2017-11-07T08:59:14.453Z,46.95
2017-11-07T09:01:41.455Z,58.40
2017-11-07T09:04:07.713Z,42.10
2017-11-07T09:06:34.666Z,41.28
2017-11-07T09:09:01.708Z,47.03
2017-11-07T09:11:27.971Z,46.17
2017-11-07T09:13:54.259Z,55.00
2017-11-07T09:16:21.255Z,55.95
2017-11-07T09:18:47.536Z,53.55
2017-11-07T09:21:14.544Z,52.05
2017-11-07T09:23:40.765Z,57.20
2017-11-07T09:26:07.059Z,47.30
2017-11-07T09:28:33.329Z,57.22
2017-11-07T09:30:59.593Z,50.05
2017-11-07T09:33:26.614Z,48.75
2017-11-07T09:35:52.871Z,54.63
2017-11-07T09:38:19.928Z,53.55
2017-11-07T09:40:46.157Z,57.30
2017-11-07T09:43:12.434Z,61.22
2017-11-07T09:45:38.713Z,61.05
2017-11-07T09:48:04.988Z,63.05
2017-11-07T09:50:31.229Z,57.90
2017-11-07T09:52:57.445Z,60.42
2017-11-07T09:55:30.550Z,63.28
2017-11-07T09:57:57.547Z,67.22
2017-11-07T10:00:23.829Z,64.28
2017-11-07T10:02:50.832Z,68.47
2017-11-07T10:05:17.120Z,71.30
2017-11-07T10:07:43.345Z,63.47
2017-11-07T10:10:09.629Z,68.65
2017-11-07T10:12:35.899Z,71.45
2017-11-07T10:15:02.152Z,70.68
2017-11-07T10:17:28.444Z,68.60
2017-11-07T10:19:55.469Z,67.00
2017-11-07T10:22:21.757Z,68.35
2017-11-07T10:24:48.044Z,67.22
2017-11-07T10:27:15.062Z,67.05
2017-11-07T10:29:41.739Z,55.10
2017-11-07T10:32:08.074Z,67.78
2017-11-07T10:34:34.431Z,69.85
2017-11-07T10:37:00.732Z,76.78
2017-11-07T10:39:26.984Z,79.87
2017-11-07T10:41:53.248Z,57.92
2017-11-07T10:44:19.754Z,62.90
2017-11-07T10:46:46.018Z,69.62
2017-11-07T10:49:13.025Z,63.00
2017-11-07T10:51:39.299Z,65.70
2017-11-07T10:54:06.318Z,66.82
2017-11-07T10:56:32.604Z,77.70
2017-11-07T10:58:58.847Z,65.75
2017-11-07T11:01:25.124Z,65.75
2017-11-07T11:03:52.108Z,63.17
2017-11-07T11:06:20.732Z,66.47
2017-11-07T11:08:47.014Z,63.03
2017-11-07T11:11:13.280Z,63.58
2017-11-07T11:13:39.844Z,62.42
2017-11-07T11:16:06.818Z,67.22
2017-11-07T11:18:33.109Z,62.42
2017-11-07T11:21:00.133Z,67.45
2017-11-07T11:23:26.626Z,66.78
2017-11-07T11:25:52.892Z,68.32
2017-11-07T11:28:20.691Z,67.90
2017-11-07T11:30:47.674Z,72.43
2017-11-07T11:33:13.944Z,65.65
2017-11-07T11:35:40.933Z,73.05
2017-11-07T11:38:07.234Z,64.40
2017-11-07T11:40:34.248Z,78.32
2017-11-07T11:43:00.528Z,71.07
2017-11-07T11:45:26.844Z,72.87
2017-11-07T11:47:53.088Z,81.93
2017-11-07T11:50:19.792Z,73.60
2017-11-07T11:52:46.080Z,63.60
2017-11-07T11:55:12.349Z,84.68
2017-11-07T11:57:39.404Z,74.90
2017-11-07T12:00:05.701Z,62.38
2017-11-07T12:02:31.976Z,78.53
2017-11-07T12:04:58.241Z,78.40
2017-11-07T12:07:24.520Z,74.82
2017-11-07T12:09:50.820Z,70.72
2017-11-07T12:12:17.080Z,64.45
2017-11-07T12:14:43.322Z,74.68
2017-11-07T12:17:09.617Z,75.72
2017-11-07T12:19:36.619Z,77.72
2017-11-07T12:22:02.945Z,73.85
2017-11-07T12:24:29.234Z,72.22
2017-11-07T12:26:55.524Z,74.82
2017-11-07T12:29:21.866Z,76.22
2017-11-07T12:31:48.927Z,61.67
2017-11-07T12:34:15.222Z,69.78
2017-11-07T12:36:41.507Z,67.25
2017-11-07T12:39:07.819Z,74.03
2017-11-07T12:41:34.060Z,73.47
2017-11-07T12:44:00.373Z,62.35
2017-11-07T12:46:26.634Z,72.43
2017-11-07T12:48:52.879Z,61.75
2017-11-07T12:51:30.466Z,71.12
2017-11-07T12:53:57.454Z,70.62
2017-11-07T12:56:24.463Z,67.70
2017-11-07T12:58:50.888Z,77.80
2017-11-07T13:01:17.265Z,69.78
2017-11-07T13:03:43.561Z,64.90
2017-11-07T13:06:09.808Z,66.40
2017-11-07T13:08:36.863Z,64.72
2017-11-07T13:11:03.129Z,68.70
2017-11-07T13:13:29.719Z,69.10
2017-11-07T13:15:55.961Z,67.95
2017-11-07T13:18:22.208Z,71.57
2017-11-07T13:20:49.208Z,77.07
2017-11-07T13:23:16.186Z,76.65
2017-11-07T13:25:42.455Z,78.62
2017-11-07T13:28:08.713Z,71.72
2017-11-07T13:30:35.341Z,88.97
2017-11-07T13:33:02.390Z,67.28
2017-11-07T13:35:29.389Z,72.95
2017-11-07T13:37:55.681Z,75.35
2017-11-07T13:40:21.967Z,61.05
2017-11-07T13:42:48.249Z,71.40
2017-11-07T13:45:14.539Z,69.60
2017-11-07T13:47:40.804Z,64.00
2017-11-07T13:50:07.068Z,67.82
2017-11-07T13:52:33.321Z,67.32
2017-11-07T13:54:59.592Z,72.50
2017-11-07T13:57:25.836Z,63.40
2017-11-07T13:59:52.123Z,76.68
2017-11-07T14:02:18.409Z,68.50
2017-11-07T14:04:44.689Z,81.37
2017-11-07T14:07:10.930Z,70.18
2017-11-07T14:09:37.195Z,70.25
2017-11-07T14:12:03.764Z,67.25
2017-11-07T14:14:30.714Z,74.50
2017-11-07T14:16:56.943Z,72.32
2017-11-07T14:19:23.214Z,76.20
2017-11-07T14:21:49.466Z,78.90
2017-11-07T14:24:15.864Z,72.07
2017-11-07T14:26:42.125Z,70.55
2017-11-07T14:29:08.680Z,71.55
2017-11-07T14:31:35.691Z,73.32
2017-11-07T14:34:04.346Z,68.05
2017-11-07T14:36:30.633Z,76.53
2017-11-07T14:38:57.618Z,69.05
2017-11-07T14:41:30.977Z,74.50
2017-11-07T14:43:58.035Z,75.47
2017-11-07T14:46:24.264Z,76.60
2017-11-07T14:48:50.533Z,74.57
2017-11-07T14:51:16.789Z,67.62
2017-11-07T14:53:43.087Z,79.05
2017-11-07T14:56:09.328Z,71.62
2017-11-07T14:58:35.569Z,76.85
2017-11-07T15:01:01.829Z,76.20
2017-11-07T15:03:28.074Z,80.38
2017-11-07T15:05:54.344Z,78.97
2017-11-07T15:08:21.327Z,73.40
2017-11-07T15:10:47.587Z,77.53
2017-11-07T15:13:14.281Z,81.28
2017-11-07T15:15:40.534Z,80.20
2017-11-07T15:18:06.796Z,85.20
2017-11-07T15:20:33.113Z,79.43
2017-11-07T15:22:59.385Z,77.75
2017-11-07T15:25:26.665Z,85.32
2017-11-07T15:27:52.879Z,84.40
2017-11-07T15:30:19.157Z,85.47
2017-11-07T15:32:45.512Z,89.32
2017-11-07T15:35:12.497Z,84.18
2017-11-07T15:37:38.768Z,80.62
2017-11-07T15:40:05.071Z,86.25
2017-11-07T15:42:31.297Z,80.65
2017-11-07T15:44:57.545Z,80.45
2017-11-07T15:47:23.798Z,79.30
2017-11-07T15:49:50.827Z,86.05
2017-11-07T15:52:17.074Z,86.65
2017-11-07T15:54:44.059Z,87.95
2017-11-07T15:57:10.417Z,76.03
2017-11-07T15:59:36.703Z,81.10
2017-11-07T16:02:03.030Z,80.12
2017-11-07T16:04:29.277Z,82.65
2017-11-07T16:06:55.540Z,86.43
2017-11-07T16:09:22.092Z,74.37
2017-11-07T16:11:49.076Z,76.85
2017-11-07T16:14:15.336Z,79.93
2017-11-07T16:16:41.619Z,88.15
2017-11-07T16:19:07.862Z,87.05
2017-11-07T16:21:41.187Z,88.80
2017-11-07T16:24:07.478Z,82.53
2017-11-07T16:26:33.763Z,87.78
2017-11-07T16:29:00.766Z,99.07
2017-11-07T16:31:27.037Z,77.82
2017-11-07T16:33:54.100Z,91.22
2017-11-07T16:36:20.336Z,79.80
2017-11-07T16:38:46.615Z,87.97
2017-11-07T16:41:12.886Z,88.97
2017-11-07T16:43:39.120Z,83.05
2017-11-07T16:46:05.431Z,82.22
2017-11-07T16:48:31.716Z,81.28
2017-11-07T16:50:58.005Z,82.97
2017-11-07T16:53:24.275Z,94.25
2017-11-07T16:55:50.553Z,81.22
2017-11-07T16:58:16.835Z,82.50
2017-11-07T17:00:43.111Z,77.07
2017-11-07T17:03:09.385Z,85.57
2017-11-07T17:05:35.668Z,74.93
2017-11-07T17:08:01.984Z,90.90
2017-11-07T17:10:28.263Z,89.90
2017-11-07T17:12:54.537Z,75.40
2017-11-07T17:15:20.849Z,87.65
2017-11-07T17:17:47.867Z,102.43
2017-11-07T17:20:14.151Z,79.53
2017-11-07T17:22:40.405Z,84.95
2017-11-07T17:25:06.698Z,88.47
2017-11-07T17:27:32.995Z,87.82
2017-11-07T17:29:59.287Z,86.28
2017-11-07T17:32:25.625Z,80.60
2017-11-07T17:34:51.880Z,70.85
2017-11-07T17:37:18.225Z,74.07
2017-11-07T17:39:45.349Z,81.10
2017-11-07T17:42:11.628Z,75.80
2017-11-07T17:44:37.932Z,81.47
2017-11-07T17:47:05.009Z,98.28
2017-11-07T17:49:31.615Z,77.22
2017-11-07T17:51:57.879Z,88.47
2017-11-07T17:54:24.317Z,81.03
2017-11-07T17:56:50.669Z,85.07
2017-11-07T17:59:16.966Z,93.00
2017-11-07T18:01:43.281Z,95.82
2017-11-07T18:04:09.571Z,87.82
2017-11-07T18:06:36.616Z,85.43
2017-11-07T18:09:02.994Z,93.75
2017-11-07T18:11:29.288Z,91.82
2017-11-07T18:13:56.343Z,86.95
2017-11-07T18:16:22.635Z,100.03
2017-11-07T18:18:48.966Z,98.28
2017-11-07T18:21:15.276Z,97.37
2017-11-07T18:23:41.604Z,99.10
2017-11-07T18:26:07.997Z,100.60
2017-11-07T18:28:34.322Z,93.80
2017-11-07T18:31:00.635Z,99.22
2017-11-07T18:33:27.755Z,100.03
2017-11-07T18:35:54.047Z,100.95
2017-11-07T18:38:20.397Z,87.12
2017-11-07T18:40:46.703Z,100.25
2017-11-07T18:43:13.027Z,97.75
2017-11-07T18:45:39.358Z,99.15
2017-11-07T18:48:05.686Z,93.93
2017-11-07T18:50:32.049Z,102.60
2017-11-07T18:52:58.403Z,88.78
2017-11-07T18:55:25.816Z,101.55
2017-11-07T18:57:52.160Z,105.53
2017-11-07T19:00:18.540Z,99.97
2017-11-07T19:02:44.889Z,101.97
2017-11-07T19:05:11.252Z,114.22
2017-11-07T19:07:37.616Z,92.10
2017-11-07T19:10:04.758Z,102.93
2017-11-07T19:12:31.824Z,95.93
2017-11-07T19:14:58.188Z,108.05
2017-11-07T19:17:25.690Z,105.53
2017-11-07T19:19:53.046Z,91.65
2017-11-07T19:22:20.618Z,102.47
2017-11-07T19:24:48.241Z,84.55
2017-11-07T19:27:14.772Z,84.90
2017-11-07T19:29:42.436Z,107.20
2017-11-07T19:32:09.220Z,92.15
2017-11-07T19:34:35.578Z,97.40
2017-11-07T19:37:02.140Z,104.15
2017-11-07T19:39:29.635Z,97.70
2017-11-07T19:41:57.165Z,94.53
2017-11-07T19:44:27.542Z,105.35
2017-11-07T19:46:54.145Z,113.47
2017-11-07T19:49:21.608Z,109.18
2017-11-07T19:51:49.903Z,92.70
2017-11-07T19:54:25.865Z,107.63
2017-11-07T19:56:52.695Z,103.45
2017-11-07T19:59:21.108Z,91.30
2017-11-07T20:01:47.608Z,97.50
2017-11-07T20:04:14.007Z,96.93
2017-11-07T20:06:40.452Z,95.57
2017-11-07T20:09:06.811Z,99.78
2017-11-07T20:11:33.300Z,94.07
2017-11-07T20:13:59.610Z,96.80
2017-11-07T20:16:27.079Z,97.97
2017-11-07T20:18:53.438Z,100.62
2017-11-07T20:21:19.808Z,99.85
2017-11-07T20:23:46.161Z,98.37
2017-11-07T20:26:13.529Z,108.82
2017-11-07T20:28:39.898Z,97.32
2017-11-07T20:31:06.228Z,99.97
2017-11-07T20:33:33.798Z,93.28
2017-11-07T20:36:00.310Z,104.65
2017-11-07T20:38:26.621Z,95.35
2017-11-07T20:40:54.098Z,106.97
2017-11-07T20:43:21.336Z,88.78
2017-11-07T20:45:48.830Z,82.93
2017-11-07T20:48:16.208Z,62.30
2017-11-07T20:50:42.602Z,60.12
2017-11-07T20:53:08.955Z,46.95
2017-11-07T20:55:36.382Z,52.05
2017-11-07T20:58:03.112Z,48.75
2017-11-07T21:00:29.483Z,44.33
2017-11-07T21:03:01.807Z,41.60
2017-11-07T21:05:30.121Z,40.28
2017-11-07T21:07:58.073Z,45.10
2017-11-07T21:10:31.460Z,41.37
2017-11-07T21:12:58.803Z,41.20
2017-11-07T21:15:26.605Z,39.00
2017-11-07T21:17:53.052Z,38.25
2017-11-07T21:20:20.454Z,30.80
2017-11-07T21:22:46.910Z,33.47
2017-11-07T21:25:13.201Z,41.92
2017-11-07T21:27:39.533Z,42.70
2017-11-07T21:30:05.885Z,41.40
2017-11-07T21:32:33.372Z,44.85
2017-11-07T21:35:00.745Z,39.70
2017-11-07T21:37:27.034Z,48.67
2017-11-07T21:39:54.643Z,51.20
2017-11-07T21:42:22.961Z,54.88
2017-11-07T21:44:50.980Z,52.72
2017-11-07T21:47:18.712Z,57.30
2017-11-07T21:49:45.178Z,59.13
2017-11-07T21:52:11.537Z,56.90
2017-11-07T21:54:39.783Z,62.55
2017-11-07T21:57:08.314Z,67.05
2017-11-07T21:59:36.036Z,65.68
2017-11-07T22:02:02.526Z,61.95
2017-11-07T22:04:30.263Z,73.53
2017-11-07T22:06:58.303Z,69.72
2017-11-07T22:09:24.769Z,68.72
2017-11-07T22:11:56.202Z,68.82
2017-11-07T22:14:23.475Z,65.75
2017-11-07T22:16:53.957Z,65.62
2017-11-07T22:19:20.844Z,62.58
2017-11-07T22:21:49.029Z,70.22
2017-11-07T22:24:15.333Z,64.00
2017-11-07T22:26:42.658Z,65.30
2017-11-07T22:29:09.082Z,56.80
2017-11-07T22:31:36.839Z,54.50
2017-11-07T22:34:04.050Z,47.58
2017-11-07T22:36:31.338Z,54.00
2017-11-07T22:38:59.010Z,51.40
2017-11-07T22:41:26.761Z,43.60
2017-11-07T22:43:53.953Z,41.83
2017-11-07T22:46:20.205Z,39.20
2017-11-07T22:48:47.928Z,42.08
2017-11-07T22:51:14.378Z,39.05
2017-11-07T22:53:41.788Z,36.15
2017-11-07T22:56:08.991Z,43.92
2017-11-07T22:58:36.419Z,36.28
2017-11-07T23:01:02.879Z,39.75
2017-11-07T23:03:30.424Z,43.83
2017-11-07T23:05:59.809Z,42.15
2017-11-07T23:08:26.144Z,39.33
2017-11-07T23:10:53.128Z,37.92
2017-11-07T23:13:20.136Z,35.17
2017-11-07T23:15:46.394Z,38.03
2017-11-07T23:18:13.705Z,33.13
2017-11-07T23:20:39.936Z,39.45
2017-11-07T23:23:07.077Z,39.38
2017-11-07T23:25:34.604Z,35.67
2017-11-07T23:28:01.778Z,36.40
2017-11-07T23:30:28.031Z,33.15
2017-11-07T23:32:55.368Z,32.60
2017-11-07T23:35:22.346Z,28.20
2017-11-07T23:37:48.575Z,33.10
2017-11-07T23:40:16.058Z,34.95
2017-11-07T23:42:43.711Z,33.10
2017-11-07T23:45:10.112Z,30.27
2017-11-07T23:47:37.652Z,30.15
2017-11-07T23:50:05.402Z,32.67
2017-11-07T23:52:33.018Z,27.95
2017-11-07T23:55:00.118Z,27.20
2017-11-07T23:57:26.373Z,32.45
2017-11-07T23:59:53.359Z,35.05
